createdAt,value
2019-04-27T00:02:13.339Z,97052.45
2019-04-27T00:07:17.033Z,97046.23
2019-04-27T00:12:16.506Z,97053.38
2019-04-27T00:17:09.500Z,97049.84
2019-04-27T00:22:05.860Z,97058.22
2019-04-27T00:27:00.449Z,97056.95
2019-04-27T00:31:55.778Z,97058.83
2019-04-27T00:36:50.424Z,97054.89
2019-04-27T00:41:45.368Z,97056.54
2019-04-27T00:46:39.966Z,97047.34
2019-04-27T00:51:34.541Z,97047.59
2019-04-27T00:56:30.789Z,97050.03
2019-04-27T01:01:33.318Z,97050.48
2019-04-27T01:06:28.214Z,97043.18
2019-04-27T01:11:24.861Z,97037.13
2019-04-27T01:16:21.937Z,97034.97
2019-04-27T01:21:15.536Z,97041.70
2019-04-27T01:26:16.054Z,97027.04
2019-04-27T01:31:12.345Z,97029.67
2019-04-27T01:36:07.015Z,97031.62
2019-04-27T01:41:01.582Z,97022.31
2019-04-27T01:45:56.172Z,97025.31
2019-04-27T01:50:50.760Z,97022.09
2019-04-27T01:55:45.421Z,97024.69
2019-04-27T02:00:53.801Z,97022.53
2019-04-27T02:05:50.043Z,97020.97
2019-04-27T02:10:44.919Z,97016.23
2019-04-27T02:15:39.655Z,97017.56
2019-04-27T02:20:34.222Z,97017.20
2019-04-27T02:25:29.522Z,97018.47
2019-04-27T02:30:41.115Z,97017.92
2019-04-27T02:35:35.676Z,97019.94
2019-04-27T02:40:53.083Z,97012.25
2019-04-27T02:45:50.132Z,97020.53
2019-04-27T02:50:45.612Z,97012.56
2019-04-27T02:55:40.793Z,97010.16
2019-04-27T03:00:35.454Z,97009.21
2019-04-27T03:05:30.054Z,97008.15
2019-04-27T03:10:26.268Z,97006.05
2019-04-27T03:15:23.400Z,97008.97
2019-04-27T03:20:21.795Z,97016.66
2019-04-27T03:25:17.073Z,97010.63
2019-04-27T03:30:14.990Z,97015.59
2019-04-27T03:35:12.953Z,97007.72
2019-04-27T03:40:10.323Z,97004.33
2019-04-27T03:45:10.991Z,97011.63
2019-04-27T03:50:10.332Z,97005.91
2019-04-27T03:55:19.514Z,97004.75
2019-04-27T04:00:19.972Z,97009.39
2019-04-27T04:05:15.185Z,97010.28
2019-04-27T04:10:10.720Z,97016.53
2019-04-27T04:15:10.200Z,97019.68
2019-04-27T04:20:10.167Z,97006.66
2019-04-27T04:25:06.449Z,97012.49
2019-04-27T04:30:01.074Z,97008.30
2019-04-27T04:35:01.310Z,97003.52
2019-04-27T04:39:56.389Z,97004.90
2019-04-27T04:45:01.265Z,96999.34
2019-04-27T04:50:08.543Z,97000.29
2019-04-27T04:54:52.149Z,96996.17
2019-04-27T04:59:46.717Z,96995.41
2019-04-27T05:04:41.303Z,96994.36
2019-04-27T05:09:35.879Z,96997.52
2019-04-27T05:14:30.463Z,97003.89
2019-04-27T05:19:25.609Z,97004.48
2019-04-27T05:24:20.264Z,97002.80
2019-04-27T05:29:14.840Z,97000.89
2019-04-27T05:34:09.640Z,96995.80
2019-04-27T05:39:06.704Z,96996.30
2019-04-27T05:44:03.184Z,96995.48
2019-04-27T05:49:01.649Z,96998.93
2019-04-27T05:53:54.457Z,96998.20
2019-04-27T05:58:51.083Z,96990.35
2019-04-27T06:03:45.348Z,96987.73
2019-04-27T06:08:39.929Z,96981.94
2019-04-27T06:13:34.514Z,96994.26
2019-04-27T06:18:29.539Z,96992.56
2019-04-27T06:23:24.374Z,96985.16
2019-04-27T06:28:19.104Z,96971.87
2019-04-27T06:33:13.923Z,96964.19
2019-04-27T06:38:10.173Z,96961.85
2019-04-27T06:43:05.531Z,96967.41
2019-04-27T06:48:00.108Z,96965.48
2019-04-27T06:52:54.716Z,96963.07
2019-04-27T06:57:49.294Z,96965.70
2019-04-27T07:02:43.907Z,96970.47
2019-04-27T07:07:39.535Z,96970.75
2019-04-27T07:12:34.436Z,96978.22
2019-04-27T07:17:29.246Z,96987.59
2019-04-27T07:22:24.064Z,96991.14
2019-04-27T07:27:19.168Z,96992.60
2019-04-27T07:32:14.994Z,96995.84
2019-04-27T07:37:11.135Z,96997.58
2019-04-27T07:42:05.904Z,97000.41
2019-04-27T07:47:16.838Z,97003.52
2019-04-27T07:52:11.564Z,97003.97
2019-04-27T07:57:06.168Z,97012.66
2019-04-27T08:02:00.763Z,97014.49
2019-04-27T08:06:55.368Z,97022.14
2019-04-27T08:11:49.947Z,97017.54
2019-04-27T08:16:44.565Z,97028.63
2019-04-27T08:21:44.461Z,97038.28
2019-04-27T08:26:37.137Z,97042.22
2019-04-27T08:31:39.127Z,97038.59
2019-04-27T08:36:33.732Z,97040.91
2019-04-27T08:41:29.566Z,97038.94
2019-04-27T08:46:24.499Z,97030.16
2019-04-27T08:51:19.641Z,97030.09
2019-04-27T08:56:14.355Z,97033.36
2019-04-27T09:01:10.378Z,97028.99
2019-04-27T09:06:06.850Z,97035.77
2019-04-27T09:11:05.797Z,97029.92
2019-04-27T09:16:11.134Z,97025.26
2019-04-27T09:21:06.102Z,97017.86
2019-04-27T09:26:00.715Z,97002.67
2019-04-27T09:30:55.762Z,97014.79
2019-04-27T09:35:50.363Z,97015.58
2019-04-27T09:40:46.593Z,97014.56
2019-04-27T09:45:42.023Z,97007.14
2019-04-27T09:50:36.596Z,97009.55
2019-04-27T09:55:31.223Z,97007.41
2019-04-27T10:00:27.776Z,97007.27
2019-04-27T10:05:22.773Z,97011.73
2019-04-27T10:10:18.163Z,96999.63
2019-04-27T10:15:14.084Z,96990.33
2019-04-27T10:20:09.673Z,96974.48
2019-04-27T10:25:08.715Z,96978.11
2019-04-27T10:30:05.811Z,96970.85
2019-04-27T10:35:00.506Z,96970.35
2019-04-27T10:39:56.042Z,96967.74
2019-04-27T10:44:50.860Z,96950.31
2019-04-27T10:49:47.999Z,96940.55
2019-04-27T10:54:41.837Z,96939.16
2019-04-27T10:59:36.418Z,96933.31
2019-04-27T11:04:46.223Z,96927.55
2019-04-27T11:09:41.193Z,96926.04
2019-04-27T11:14:35.794Z,96916.73
2019-04-27T11:19:30.364Z,96913.43
2019-04-27T11:24:24.955Z,96911.33
2019-04-27T11:29:19.624Z,96911.26
2019-04-27T11:34:14.297Z,96909.88
2019-04-27T11:39:19.652Z,96892.16
2019-04-27T11:44:12.855Z,96882.14
2019-04-27T11:49:07.512Z,96877.08
2019-04-27T11:54:02.111Z,96885.52
2019-04-27T11:58:56.701Z,96884.25
2019-04-27T12:03:51.317Z,96876.17
2019-04-27T12:08:45.901Z,96872.74
2019-04-27T12:13:40.497Z,96868.89
2019-04-27T12:18:35.077Z,96870.98
2019-04-27T12:23:35.547Z,96876.98
2019-04-27T12:28:27.639Z,96859.73
2019-04-27T12:33:22.252Z,96846.71
2019-04-27T12:38:16.824Z,96849.18
2019-04-27T12:43:11.441Z,96848.48
2019-04-27T12:48:06.225Z,96849.54
2019-04-27T12:53:02.464Z,96841.62
2019-04-27T12:58:16.304Z,96840.52
2019-04-27T13:03:11.217Z,96826.73
2019-04-27T13:08:05.889Z,96815.08
2019-04-27T13:13:00.479Z,96805.84
2019-04-27T13:17:55.578Z,96807.53
2019-04-27T13:22:51.407Z,96786.08
2019-04-27T13:27:47.809Z,96784.02
2019-04-27T13:32:42.299Z,96792.90
2019-04-27T13:37:44.258Z,96779.19
2019-04-27T13:42:53.572Z,96767.00
2019-04-27T13:47:47.132Z,96741.70
2019-04-27T13:52:41.725Z,96728.73
2019-04-27T13:57:49.442Z,96725.90
2019-04-27T14:02:34.746Z,96714.11
2019-04-27T14:07:29.051Z,96711.65
2019-04-27T14:12:23.625Z,96697.91
2019-04-27T14:17:19.298Z,96697.19
2019-04-27T14:22:14.215Z,96678.83
2019-04-27T14:27:10.151Z,96671.59
2019-04-27T14:32:05.257Z,96670.18
2019-04-27T14:36:59.859Z,96664.55
2019-04-27T14:41:54.575Z,96675.50
2019-04-27T14:46:49.206Z,96731.09
2019-04-27T14:51:43.779Z,96750.53
2019-04-27T14:56:38.796Z,96712.22
2019-04-27T15:01:33.413Z,96700.50
2019-04-27T15:06:28.097Z,96682.09
2019-04-27T15:11:23.966Z,96684.05
2019-04-27T15:16:18.779Z,96682.32
2019-04-27T15:21:13.443Z,96684.36
2019-04-27T15:26:08.122Z,96685.07
2019-04-27T15:31:02.481Z,96685.36
2019-04-27T15:36:09.815Z,96702.26
2019-04-27T15:41:11.342Z,96704.69
2019-04-27T15:46:05.989Z,96718.86
2019-04-27T15:51:03.342Z,96757.69
2019-04-27T15:56:00.553Z,96776.10
2019-04-27T16:00:56.495Z,96771.32
2019-04-27T16:05:49.733Z,96775.98
2019-04-27T16:10:44.331Z,96772.79
2019-04-27T16:15:38.934Z,96773.69
2019-04-27T16:20:34.141Z,96775.02
2019-04-27T16:25:31.545Z,96786.27
2019-04-27T16:30:25.347Z,96782.89
2019-04-27T16:35:23.057Z,96796.77
2019-04-27T16:40:24.338Z,96807.94
2019-04-27T16:45:14.540Z,96827.00
2019-04-27T16:50:09.883Z,96829.56
2019-04-27T16:55:05.418Z,96812.33
2019-04-27T17:00:01.114Z,96838.94
2019-04-27T17:04:56.218Z,96831.34
2019-04-27T17:09:50.972Z,96847.69
2019-04-27T17:14:50.291Z,96854.88
2019-04-27T17:19:49.115Z,96860.41
2019-04-27T17:24:46.852Z,96891.23
2019-04-27T17:29:40.582Z,96863.84
2019-04-27T17:34:35.267Z,96895.01
2019-04-27T17:39:30.014Z,96888.08
2019-04-27T17:44:24.717Z,96895.80
2019-04-27T17:49:19.406Z,96907.84
2019-04-27T17:54:14.130Z,96915.82
2019-04-27T17:59:10.235Z,96927.05
2019-04-27T18:04:08.403Z,96952.05
2019-04-27T18:09:03.412Z,96958.84
2019-04-27T18:14:00.277Z,96975.84
2019-04-27T18:19:00.070Z,96966.91
2019-04-27T18:23:58.622Z,96992.50
2019-04-27T18:28:54.183Z,97003.00
2019-04-27T18:33:48.964Z,96991.64
2019-04-27T18:38:43.666Z,96988.76
2019-04-27T18:43:39.593Z,96978.62
2019-04-27T18:48:40.271Z,96997.45
2019-04-27T18:53:36.114Z,97008.30
2019-04-27T18:58:30.866Z,97010.12
2019-04-27T19:03:25.682Z,97025.27
2019-04-27T19:08:20.601Z,97022.56
2019-04-27T19:13:15.508Z,97051.23
2019-04-27T19:18:10.378Z,97055.21
2019-04-27T19:23:05.542Z,97088.95
2019-04-27T19:28:00.349Z,97102.27
2019-04-27T19:32:55.289Z,97120.79
2019-04-27T19:37:50.082Z,97128.14
2019-04-27T19:42:44.818Z,97135.98
2019-04-27T19:47:39.429Z,97150.48
2019-04-27T19:52:34.075Z,97158.94
2019-04-27T19:57:34.964Z,97163.72
2019-04-27T20:02:26.112Z,97172.61
2019-04-27T20:07:20.755Z,97171.83
2019-04-27T20:12:15.476Z,97169.73
2019-04-27T20:17:10.113Z,97180.14
2019-04-27T20:22:04.825Z,97168.02
2019-04-27T20:27:00.614Z,97163.72
2019-04-27T20:31:56.227Z,97170.00
2019-04-27T20:36:52.747Z,97173.23
2019-04-27T20:41:47.396Z,97171.20
2019-04-27T20:46:42.057Z,97171.41
2019-04-27T20:51:52.455Z,97185.30
2019-04-27T20:56:46.378Z,97189.73
2019-04-27T21:01:40.969Z,97176.36
2019-04-27T21:06:37.275Z,97175.47
2019-04-27T21:11:33.512Z,97201.55
2019-04-27T21:16:28.090Z,97200.66
2019-04-27T21:21:22.684Z,97180.45
2019-04-27T21:26:17.281Z,97182.60
2019-04-27T21:31:12.783Z,97190.16
2019-04-27T21:36:07.733Z,97188.70
2019-04-27T21:41:02.339Z,97185.52
2019-04-27T21:45:56.932Z,97210.22
2019-04-27T21:50:51.809Z,97207.95
2019-04-27T21:55:48.234Z,97206.80
2019-04-27T22:00:43.009Z,97208.79
2019-04-27T22:05:38.094Z,97209.77
2019-04-27T22:10:32.695Z,97217.70
2019-04-27T22:15:27.348Z,97221.50
2019-04-27T22:20:21.959Z,97211.86
2019-04-27T22:25:16.534Z,97218.38
2019-04-27T22:30:11.353Z,97215.94
2019-04-27T22:35:07.469Z,97212.80
2019-04-27T22:40:21.421Z,97207.38
2019-04-27T22:45:17.818Z,97205.92
2019-04-27T22:50:12.546Z,97217.77
2019-04-27T22:55:08.408Z,97219.93
2019-04-27T23:00:15.086Z,97228.78
2019-04-27T23:05:10.858Z,97260.20
2019-04-27T23:10:08.144Z,97269.73
2019-04-27T23:15:02.946Z,97266.23
2019-04-27T23:19:57.535Z,97271.06
2019-04-27T23:24:52.139Z,97260.02
2019-04-27T23:29:46.799Z,97251.19
2019-04-27T23:34:41.612Z,97253.38
2019-04-27T23:39:36.457Z,97251.05
2019-04-27T23:44:31.040Z,97249.24
2019-04-27T23:49:25.637Z,97237.17
2019-04-27T23:54:20.226Z,97248.63
2019-04-27T23:59:24.759Z,97250.26
